createdAt,value
2023-04-18T00:00:52.583Z,100583.00
2023-04-18T00:05:55.941Z,100575.94
2023-04-18T00:10:59.472Z,100575.16
2023-04-18T00:16:04.296Z,100580.59
2023-04-18T00:21:08.779Z,100573.66
2023-04-18T00:26:12.324Z,100566.72
2023-04-18T00:31:17.293Z,100561.53
2023-04-18T00:36:20.680Z,100561.66
2023-04-18T00:41:27.517Z,100569.75
2023-04-18T00:46:32.405Z,100562.78
2023-04-18T00:51:36.192Z,100564.66
2023-04-18T00:56:39.930Z,100559.47
2023-04-18T01:01:45.353Z,100575.47
2023-04-18T01:06:48.936Z,100566.75
2023-04-18T01:11:52.203Z,100572.09
2023-04-18T01:16:57.630Z,100571.25
2023-04-18T01:22:00.888Z,100566.81
2023-04-18T01:27:06.010Z,100565.94
2023-04-18T01:32:09.644Z,100566.81
2023-04-18T01:37:12.958Z,100565.06
2023-04-18T01:42:17.582Z,100560.63
2023-04-18T01:47:20.794Z,100558.88
2023-04-18T01:52:24.039Z,100564.03
2023-04-18T01:57:29.068Z,100557.72
2023-04-18T02:02:32.538Z,100558.56
2023-04-18T02:07:36.052Z,100554.09
2023-04-18T02:12:40.669Z,100542.63
2023-04-18T02:17:43.916Z,100542.69
2023-04-18T02:22:47.953Z,100547.22
2023-04-18T02:27:52.857Z,100549.03
2023-04-18T02:32:58.241Z,100545.47
2023-04-18T02:38:01.762Z,100542.03
2023-04-18T02:43:06.645Z,100549.16
2023-04-18T02:48:10.105Z,100551.00
2023-04-18T02:53:13.368Z,100550.16
2023-04-18T02:58:18.310Z,100543.91
2023-04-18T03:03:21.811Z,100545.66
2023-04-18T03:08:25.241Z,100546.44
2023-04-18T03:13:29.806Z,100552.59
2023-04-18T03:18:33.082Z,100541.06
2023-04-18T03:23:36.481Z,100549.59
2023-04-18T03:28:41.333Z,100545.78
2023-04-18T03:33:45.803Z,100548.25
2023-04-18T03:38:49.314Z,100548.03
2023-04-18T03:43:54.094Z,100546.97
2023-04-18T03:48:57.427Z,100551.16
2023-04-18T03:54:00.646Z,100557.88
2023-04-18T03:59:05.294Z,100553.78
2023-04-18T04:04:09.427Z,100549.53
2023-04-18T04:09:12.892Z,100558.50
2023-04-18T04:14:17.630Z,100560.34
2023-04-18T04:19:21.205Z,100563.66
2023-04-18T04:24:24.601Z,100565.47
2023-04-18T04:29:29.571Z,100552.09
2023-04-18T04:34:34.525Z,100552.88
2023-04-18T04:39:37.905Z,100557.09
2023-04-18T04:44:43.102Z,100557.47
2023-04-18T04:49:46.440Z,100551.41
2023-04-18T04:54:49.963Z,100556.63
2023-04-18T04:59:54.740Z,100559.31
2023-04-18T05:04:58.039Z,100569.13
2023-04-18T05:10:01.216Z,100568.91
2023-04-18T05:15:07.210Z,100568.31
2023-04-18T05:20:11.603Z,100570.09
2023-04-18T05:25:15.110Z,100571.59
2023-04-18T05:30:19.762Z,100574.88
2023-04-18T05:35:23.063Z,100576.34
2023-04-18T05:40:27.584Z,100573.34
2023-04-18T05:45:32.745Z,100582.44
2023-04-18T05:50:36.148Z,100580.31
2023-04-18T05:55:41.133Z,100569.44
2023-04-18T06:00:45.945Z,100574.06
2023-04-18T06:05:49.349Z,100573.69
2023-04-18T06:10:52.653Z,100567.13
2023-04-18T06:15:57.402Z,100562.69
2023-04-18T06:21:00.896Z,100569.75
2023-04-18T06:26:04.256Z,100561.34
2023-04-18T06:31:09.490Z,100566.16
2023-04-18T06:36:12.950Z,100562.84
2023-04-18T06:41:16.782Z,100561.00
2023-04-18T06:46:22.116Z,100558.03
2023-04-18T06:51:25.531Z,100554.34
2023-04-18T06:56:29.746Z,100553.50
2023-04-18T07:01:34.681Z,100553.59
2023-04-18T07:06:38.664Z,100556.72
2023-04-18T07:11:42.172Z,100557.13
2023-04-18T07:16:47.078Z,100543.28
2023-04-18T07:21:50.318Z,100536.94
2023-04-18T07:26:55.167Z,100535.97
2023-04-18T07:32:00.167Z,100542.59
2023-04-18T07:37:03.804Z,100546.66
2023-04-18T07:42:07.909Z,100541.78
2023-04-18T07:47:14.042Z,100534.28
2023-04-18T07:52:17.762Z,100531.94
2023-04-18T07:57:21.073Z,100535.16
2023-04-18T08:02:25.968Z,100529.78
2023-04-18T08:07:29.381Z,100528.63
2023-04-18T08:12:32.856Z,100514.94
2023-04-18T08:17:39.021Z,100511.47
2023-04-18T08:23:01.376Z,100510.03
2023-04-18T08:28:06.054Z,100504.78
2023-04-18T08:33:11.104Z,100499.13
2023-04-18T08:38:14.930Z,100506.44
2023-04-18T08:43:18.252Z,100496.41
2023-04-18T08:48:23.201Z,100487.88
2023-04-18T08:53:26.705Z,100483.09
2023-04-18T08:58:32.478Z,100472.66
2023-04-18T09:03:40.193Z,100475.88
2023-04-18T09:08:44.779Z,100472.03
2023-04-18T09:13:48.770Z,100476.34
2023-04-18T09:19:14.159Z,100476.25
2023-04-18T09:24:21.239Z,100462.63
2023-04-18T09:29:42.503Z,100475.19
2023-04-18T09:34:48.062Z,100466.91
2023-04-18T09:39:51.981Z,100459.50
2023-04-18T09:45:05.673Z,100466.41
2023-04-18T09:50:12.294Z,100475.91
2023-04-18T09:55:17.789Z,100468.44
2023-04-18T10:00:26.625Z,100463.53
2023-04-18T10:05:34.873Z,100468.59
2023-04-18T10:10:39.085Z,100483.75
2023-04-18T10:15:44.180Z,100494.34
2023-04-18T10:20:49.032Z,100493.53
2023-04-18T10:25:52.501Z,100494.97
2023-04-18T10:30:57.839Z,100490.47
2023-04-18T10:36:06.477Z,100497.34
2023-04-18T10:41:31.509Z,100495.00
2023-04-18T10:46:35.016Z,100494.50
2023-04-18T10:51:39.729Z,100505.09
2023-04-18T10:56:56.756Z,100502.16
2023-04-18T11:02:06.384Z,100502.16
2023-04-18T11:07:11.322Z,100495.75
2023-04-18T11:12:14.784Z,100498.00
2023-04-18T11:17:19.511Z,100490.53
2023-04-18T11:22:24.508Z,100492.69
2023-04-18T11:27:28.053Z,100487.13
2023-04-18T11:32:31.567Z,100490.88
2023-04-18T11:37:36.892Z,100487.94
2023-04-18T11:42:42.296Z,100485.59
2023-04-18T11:47:47.549Z,100467.22
2023-04-18T11:52:54.216Z,100478.66
2023-04-18T11:57:58.872Z,100487.84
2023-04-18T12:03:04.926Z,100479.22
2023-04-18T12:08:11.522Z,100476.13
2023-04-18T12:13:15.332Z,100452.69
2023-04-18T12:18:20.696Z,100463.50
2023-04-18T12:23:35.705Z,100466.63
2023-04-18T12:28:39.030Z,100461.41
2023-04-18T12:33:42.326Z,100460.31
2023-04-18T12:38:49.235Z,100456.09
2023-04-18T12:43:52.525Z,100457.41
2023-04-18T12:48:57.267Z,100452.72
2023-04-18T12:54:02.306Z,100454.44
2023-04-18T12:59:05.874Z,100451.13
2023-04-18T13:04:12.877Z,100450.59
2023-04-18T13:09:18.125Z,100454.16
2023-04-18T13:14:21.537Z,100445.88
2023-04-18T13:19:24.913Z,100444.88
2023-04-18T13:24:29.785Z,100439.19
2023-04-18T13:29:33.209Z,100452.63
2023-04-18T13:34:41.709Z,100442.81
2023-04-18T13:39:46.437Z,100441.28
2023-04-18T13:44:50.238Z,100446.78
2023-04-18T13:49:53.539Z,100439.47
2023-04-18T13:54:58.357Z,100440.94
2023-04-18T14:00:01.932Z,100437.69
2023-04-18T14:05:08.430Z,100434.78
2023-04-18T14:10:13.501Z,100433.63
2023-04-18T14:15:16.988Z,100431.53
2023-04-18T14:20:20.235Z,100427.53
2023-04-18T14:25:24.964Z,100432.84
2023-04-18T14:30:28.132Z,100439.75
2023-04-18T14:35:32.217Z,100437.44
2023-04-18T14:40:37.034Z,100448.19
2023-04-18T14:45:40.362Z,100443.06
2023-04-18T14:50:43.940Z,100453.47
2023-04-18T14:55:48.644Z,100451.94
2023-04-18T15:00:52.257Z,100459.47
2023-04-18T15:05:55.817Z,100458.22
2023-04-18T15:11:01.251Z,100435.56
2023-04-18T15:16:04.920Z,100465.28
2023-04-18T15:21:08.146Z,100468.34
2023-04-18T15:26:12.823Z,100465.03
2023-04-18T15:31:16.581Z,100467.22
2023-04-18T15:36:20.188Z,100464.72
2023-04-18T15:41:24.960Z,100469.16
2023-04-18T15:46:28.411Z,100463.16
2023-04-18T15:51:31.676Z,100464.03
2023-04-18T15:56:37.393Z,100476.63
2023-04-18T16:01:40.819Z,100470.50
2023-04-18T16:06:44.704Z,100468.78
2023-04-18T16:11:49.397Z,100481.44
2023-04-18T16:16:53.836Z,100482.19
2023-04-18T16:21:57.351Z,100486.44
2023-04-18T16:27:02.884Z,100495.97
2023-04-18T16:32:08.206Z,100490.38
2023-04-18T16:37:11.488Z,100494.44
2023-04-18T16:42:16.101Z,100488.75
2023-04-18T16:47:20.047Z,100501.69
2023-04-18T16:52:23.779Z,100496.13
2023-04-18T16:57:28.521Z,100506.34
2023-04-18T17:02:32.192Z,100504.09
2023-04-18T17:07:35.733Z,100509.78
2023-04-18T17:12:40.543Z,100516.31
2023-04-18T17:17:43.931Z,100516.63
2023-04-18T17:22:47.249Z,100517.47
2023-04-18T17:27:51.948Z,100521.19
2023-04-18T17:32:55.767Z,100516.97
2023-04-18T17:37:59.206Z,100523.41
2023-04-18T17:43:04.093Z,100529.78
2023-04-18T17:48:09.057Z,100523.53
2023-04-18T17:53:13.051Z,100532.44
2023-04-18T17:58:17.861Z,100532.56
2023-04-18T18:03:21.891Z,100523.81
2023-04-18T18:08:25.830Z,100532.81
2023-04-18T18:13:30.941Z,100526.78
2023-04-18T18:18:34.378Z,100530.38
2023-04-18T18:23:38.014Z,100538.38
2023-04-18T18:28:42.936Z,100528.72
2023-04-18T18:33:46.528Z,100531.41
2023-04-18T18:38:49.876Z,100523.59
2023-04-18T18:43:54.732Z,100528.16
2023-04-18T18:48:58.106Z,100523.00
2023-04-18T18:54:01.509Z,100514.41
2023-04-18T18:59:06.226Z,100516.41
2023-04-18T19:04:09.792Z,100516.59
2023-04-18T19:09:13.812Z,100516.81
2023-04-18T19:14:18.859Z,100513.56
2023-04-18T19:19:22.166Z,100516.50
2023-04-18T19:24:25.504Z,100522.81
2023-04-18T19:29:32.574Z,100519.53
2023-04-18T19:34:36.398Z,100527.88
2023-04-18T19:39:39.670Z,100526.38
2023-04-18T19:44:44.432Z,100525.66
2023-04-18T19:49:47.709Z,100525.00
2023-04-18T19:54:51.077Z,100525.03
2023-04-18T19:59:55.978Z,100526.13
2023-04-18T20:04:59.441Z,100527.09
2023-04-18T20:10:04.393Z,100524.63
2023-04-18T20:15:10.820Z,100536.16
2023-04-18T20:20:14.640Z,100533.59
2023-04-18T20:25:18.159Z,100531.84
2023-04-18T20:30:24.606Z,100537.16
2023-04-18T20:35:29.855Z,100529.38
2023-04-18T20:40:33.468Z,100538.25
2023-04-18T20:45:38.398Z,100539.19
2023-04-18T20:50:44.031Z,100536.69
2023-04-18T20:55:47.519Z,100543.09
2023-04-18T21:00:52.295Z,100546.94
2023-04-18T21:05:55.579Z,100548.00
2023-04-18T21:10:58.768Z,100550.81
2023-04-18T21:16:05.329Z,100550.97
2023-04-18T21:21:09.044Z,100551.94
2023-04-18T21:26:13.772Z,100553.88
2023-04-18T21:31:19.979Z,100551.28
2023-04-18T21:36:24.424Z,100537.50
2023-04-18T21:41:28.054Z,100559.41
2023-04-18T21:46:32.718Z,100558.59
2023-04-18T21:51:36.067Z,100554.19
2023-04-18T21:56:39.546Z,100549.75
2023-04-18T22:01:44.692Z,100560.44
2023-04-18T22:06:48.002Z,100555.13
2023-04-18T22:11:51.992Z,100555.13
2023-04-18T22:16:58.943Z,100556.97
2023-04-18T22:22:02.351Z,100550.81
2023-04-18T22:27:05.952Z,100548.19
2023-04-18T22:32:10.656Z,100548.19
2023-04-18T22:37:13.879Z,100541.09
2023-04-18T22:42:17.146Z,100549.00
2023-04-18T22:47:22.496Z,100541.91
2023-04-18T22:52:26.151Z,100542.75
2023-04-18T22:57:29.580Z,100547.00
2023-04-18T23:02:34.480Z,100544.28
2023-04-18T23:07:37.930Z,100540.81
2023-04-18T23:12:41.126Z,100533.72
2023-04-18T23:17:45.842Z,100540.03
2023-04-18T23:22:51.704Z,100540.03
2023-04-18T23:27:55.182Z,100535.56
2023-04-18T23:32:59.803Z,100536.50
2023-04-18T23:38:03.151Z,100539.16
2023-04-18T23:43:06.374Z,100530.38
2023-04-18T23:48:11.559Z,100527.66
2023-04-18T23:53:14.897Z,100528.66
2023-04-18T23:58:18.365Z,100519.97
